Time;durP1;ratioP1;P1;durP2;ratioP2;P2;SDS_P1;SDS_P2;PMS_P1;PMS_P2;Temp;Humidity;BMP_temperature;BMP_pressure;BME280_temperature;BME280_humidity;BME280_pressure;Samples;Min_cycle;Max_cycle;Signal;HPM_P1;HPM_P2
2023/03/16 00:00:41;;;;;;;0.25;0.22;;;;;;;16.20;99.86;98799.72;7392134;19;20467;-70
2023/03/16 00:03:09;;;;;;;5.78;0.85;;;;;;;14.04;100.00;98799.28;7395560;19;20006;-71
2023/03/16 00:05:35;;;;;;;3.65;0.90;;;;;;;20.69;99.21;98767.38;7399044;19;20039;-69
2023/03/16 00:08:02;;;;;;;8.57;0.88;;;;;;;26.78;57.58;98768.94;7392913;19;20015;-71
2023/03/16 00:10:28;;;;;;;4.78;0.68;;;;;;;25.67;57.24;98759.84;7393959;19;20032;-69
2023/03/16 00:12:55;;;;;;;1.15;1.05;;;;;;;28.13;50.17;98768.19;7395348;19;20014;-69
2023/03/16 00:15:21;;;;;;;0.68;0.68;;;;;;;26.24;49.64;98759.56;7393079;19;20496;-70
2023/03/16 00:17:48;;;;;;;0.60;0.57;;;;;;;22.56;63.82;98764.50;7391985;19;20020;-70
2023/03/16 00:20:15;;;;;;;0.40;0.40;;;;;;;24.28;59.92;98763.91;7393260;19;20102;-71
2023/03/16 00:22:42;;;;;;;0.85;0.85;;;;;;;19.00;71.66;98766.44;7394665;19;20467;-70
2023/03/16 00:25:11;;;;;;;2.20;1.17;;;;;;;26.83;55.25;98744.97;7393420;19;20014;-71
2023/03/16 00:27:37;;;;;;;2.08;0.88;;;;;;;18.38;76.14;98754.69;7392030;19;20353;-71
2023/03/16 00:30:05;;;;;;;1.25;0.57;;;;;;;16.92;94.90;98749.69;7391958;19;20014;-70
2023/03/16 00:32:33;;;;;;;1.95;0.75;;;;;;;17.66;95.35;98748.97;7393369;19;20018;-68
2023/03/16 00:35:03;;;;;;;0.40;0.40;;;;;;;16.80;98.59;98745.66;7403889;19;20337;-67
2023/03/16 00:37:31;;;;;;;0.40;0.40;;;;;;;16.23;100.00;98736.84;7400547;19;20022;-69
2023/03/16 00:39:59;;;;;;;0.47;0.47;;;;;;;16.83;100.00;98744.56;7398491;19;20339;-68
2023/03/16 00:42:28;;;;;;;2.70;1.35;;;;;;;17.58;95.72;98739.69;7400063;19;20010;-67
2023/03/16 00:44:59;;;;;;;2.47;1.40;;;;;;;19.15;90.32;98735.44;7398577;19;20066;-67
2023/03/16 00:47:28;;;;;;;0.70;0.70;;;;;;;21.55;74.78;98720.47;7399235;19;20027;-68
2023/03/16 00:49:54;;;;;;;12.25;1.10;;;;;;;16.90;97.05;98724.19;7399787;19;20017;-70
2023/03/16 00:52:22;;;;;;;1.85;0.63;;;;;;;16.50;100.00;98720.75;7398768;19;20010;-70
2023/03/16 00:54:51;;;;;;;0.82;0.82;;;;;;;16.04;100.00;98716.56;7401132;19;20007;-67
2023/03/16 00:57:19;;;;;;;0.45;0.45;;;;;;;16.03;100.00;98705.84;7400625;19;20019;-70
2023/03/16 00:59:46;;;;;;;1.88;1.25;;;;;;;16.28;100.00;98710.72;7400500;19;20010;-69
2023/03/16 01:02:14;;;;;;;0.50;0.40;;;;;;;16.04;100.00;98696.13;7398280;19;20011;-69
2023/03/16 01:04:42;;;;;;;0.95;0.60;;;;;;;15.79;100.00;98692.78;7400209;19;20018;-68
2023/03/16 01:07:12;;;;;;;1.40;0.75;;;;;;;15.58;100.00;98684.25;7397164;19;20370;-68
2023/03/16 01:09:39;;;;;;;2.38;0.47;;;;;;;15.51;100.00;98675.69;7397951;19;20022;-67
2023/03/16 01:12:17;;;;;;;0.85;0.85;;;;;;;15.42;100.00;98673.31;7399542;19;20344;-68
2023/03/16 01:14:47;;;;;;;4.57;0.57;;;;;;;15.60;100.00;98666.88;7397933;19;20014;-66
2023/03/16 01:17:16;;;;;;;1.02;1.00;;;;;;;15.49;100.00;98653.03;7398829;19;20467;-66
2023/03/16 01:19:42;;;;;;;4.63;1.05;;;;;;;15.65;100.00;98658.34;7398945;19;20021;-67
2023/03/16 01:22:10;;;;;;;3.85;0.75;;;;;;;15.78;100.00;98644.31;7402469;19;20010;-70
2023/03/16 01:24:38;;;;;;;1.90;1.15;;;;;;;15.75;100.00;98627.78;7402092;19;20035;-68
2023/03/16 01:27:07;;;;;;;0.47;0.43;;;;;;;15.85;100.00;98628.88;7398059;19;20043;-68
2023/03/16 01:29:33;;;;;;;1.50;0.95;;;;;;;15.77;100.00;98628.00;7396992;19;20475;-69
2023/03/16 01:32:00;;;;;;;4.93;1.95;;;;;;;15.55;100.00;98631.25;7397657;19;20020;-70
2023/03/16 01:34:27;;;;;;;2.67;1.15;;;;;;;15.65;100.00;98623.91;7401329;19;20018;-70
2023/03/16 01:36:53;;;;;;;1.48;1.15;;;;;;;15.90;100.00;98625.19;7397186;19;20018;-69
2023/03/16 01:39:30;;;;;;;0.70;0.70;;;;;;;16.24;100.00;98623.16;7397243;19;20018;-70
2023/03/16 01:41:56;;;;;;;0.20;0.20;;;;;;;16.20;100.00;98624.81;7396200;19;20417;-70
2023/03/16 01:44:29;;;;;;;0.70;0.50;;;;;;;16.32;100.00;98618.41;7395018;19;20070;-69
2023/03/16 01:46:59;;;;;;;1.52;0.75;;;;;;;16.51;100.00;98624.63;7395649;19;20046;-70
2023/03/16 01:49:32;;;;;;;1.17;0.80;;;;;;;16.32;100.00;98618.41;7395901;19;20018;-70
2023/03/16 01:52:07;;;;;;;1.38;0.52;;;;;;;16.19;100.00;98623.28;7396381;19;20027;-71
2023/03/16 01:54:43;;;;;;;0.20;0.20;;;;;;;16.33;100.00;98616.34;7396195;19;20362;-69
2023/03/16 01:57:18;;;;;;;2.45;0.88;;;;;;;16.24;100.00;98625.97;7398677;19;20025;-69
2023/03/16 02:00:08;;;;;;;0.63;0.57;;;;;;;17.44;100.00;98615.13;7396940;19;20011;-69
2023/03/16 02:02:43;;;;;;;1.05;0.30;;;;;;;16.85;100.00;98621.03;7398722;19;20011;-70
2023/03/16 02:05:23;;;;;;;1.00;0.20;;;;;;;16.92;100.00;98611.91;7396116;19;20014;-70
2023/03/16 02:07:58;;;;;;;0.43;0.43;;;;;;;17.06;100.00;98616.91;7395599;19;20471;-69
2023/03/16 02:10:27;;;;;;;0.20;0.20;;;;;;;16.95;100.00;98605.19;7398292;19;20006;-69
2023/03/16 02:12:54;;;;;;;7.07;1.13;;;;;;;17.44;100.00;98608.75;7398155;19;20014;-69
2023/03/16 02:15:20;;;;;;;0.57;0.57;;;;;;;17.67;100.00;98603.28;7395871;19;20006;-69
2023/03/16 02:17:48;;;;;;;0.80;0.57;;;;;;;17.66;100.00;98602.53;7395259;19;20366;-68
2023/03/16 02:20:39;;;;;;;4.85;1.25;;;;;;;17.83;100.00;98590.78;7396227;19;20417;-70
2023/03/16 02:23:08;;;;;;;0.85;0.85;;;;;;;17.78;100.00;98591.72;7398573;19;20378;-70
2023/03/16 02:25:40;;;;;;;2.28;0.65;;;;;;;17.77;100.00;98585.31;7397961;19;20015;-70
2023/03/16 02:28:10;;;;;;;1.60;0.70;;;;;;;17.75;100.00;98584.38;7393162;19;20011;-70
2023/03/16 02:30:41;;;;;;;1.85;0.55;;;;;;;18.11;100.00;98585.84;7394594;19;20082;-71
2023/03/16 02:33:08;;;;;;;0.95;0.95;;;;;;;17.75;100.00;98582.31;7398544;19;20088;-70
2023/03/16 02:35:34;;;;;;;5.50;0.95;;;;;;;17.69;100.00;98578.91;7401165;19;20014;-70
2023/03/16 02:38:01;;;;;;;1.95;0.88;;;;;;;17.73;100.00;98572.91;7394973;19;20019;-69
2023/03/16 02:40:33;;;;;;;2.05;0.75;;;;;;;17.65;100.00;98572.13;7395134;19;20010;-69
2023/03/16 02:43:16;;;;;;;1.23;0.93;;;;;;;17.84;100.00;98575.41;7397433;19;20014;-70
2023/03/16 02:45:54;;;;;;;0.32;0.32;;;;;;;17.90;100.00;98565.50;7395115;19;20014;-70
2023/03/16 02:48:28;;;;;;;1.92;0.88;;;;;;;17.90;100.00;98568.31;7393829;19;20014;-70
2023/03/16 02:50:55;;;;;;;0.57;0.50;;;;;;;17.68;100.00;98566.13;7395676;19;20003;-70
2023/03/16 02:53:21;;;;;;;0.90;0.88;;;;;;;17.71;100.00;98565.03;7397424;19;20017;-70
2023/03/16 02:55:47;;;;;;;1.48;0.40;;;;;;;17.93;100.00;98563.63;7394237;19;20011;-69
2023/03/16 02:58:15;;;;;;;0.30;0.30;;;;;;;18.06;100.00;98555.75;7395985;19;20010;-69
2023/03/16 03:00:42;;;;;;;0.17;0.17;;;;;;;18.00;100.00;98551.59;7395263;19;20481;-68
2023/03/16 03:03:08;;;;;;;1.52;0.63;;;;;;;18.19;100.00;98558.44;7397741;19;20364;-69
2023/03/16 03:05:35;;;;;;;0.40;0.40;;;;;;;20.00;100.00;98548.38;7398191;19;20018;-69
2023/03/16 03:08:02;;;;;;;0.50;0.40;;;;;;;19.64;96.88;98549.44;7392522;19;20070;-70
2023/03/16 03:10:28;;;;;;;0.73;0.68;;;;;;;18.19;100.00;98552.06;7394579;19;20045;-69
2023/03/16 03:12:56;;;;;;;0.20;0.20;;;;;;;18.11;100.00;98554.84;7397156;19;20351;-70
2023/03/16 03:15:23;;;;;;;0.57;0.30;;;;;;;18.25;100.00;98554.69;7394971;19;20438;-70
2023/03/16 03:17:58;;;;;;;1.35;0.57;;;;;;;18.12;100.00;98547.91;7393982;19;20011;-70
2023/03/16 03:20:28;;;;;;;1.02;0.70;;;;;;;18.27;100.00;98546.44;7393881;19;20031;-69
2023/03/16 03:22:55;;;;;;;0.45;0.15;;;;;;;18.30;100.00;98539.69;7397759;19;20007;-71
2023/03/16 03:25:22;;;;;;;0.43;0.40;;;;;;;19.12;100.00;98538.25;7394910;19;20046;-71
2023/03/16 03:27:50;;;;;;;0.52;0.52;;;;;;;19.08;100.00;98532.97;7392813;19;20011;-71
2023/03/16 03:30:23;;;;;;;2.50;1.10;;;;;;;19.27;100.00;98533.34;7393431;19;20467;-69
2023/03/16 03:32:51;;;;;;;2.88;0.47;;;;;;;18.86;100.00;98528.84;7396064;19;20013;-69
2023/03/16 03:35:20;;;;;;;0.45;0.15;;;;;;;19.96;100.00;98529.00;7397470;19;20472;-69
2023/03/16 03:37:47;;;;;;;1.10;0.32;;;;;;;19.00;100.00;98525.84;7392177;19;20333;-68
2023/03/16 03:40:17;;;;;;;1.20;0.50;;;;;;;19.21;100.00;98521.47;7392610;19;20452;-67
2023/03/16 03:42:47;;;;;;;0.25;0.22;;;;;;;18.47;100.00;98520.97;7395247;19;20014;-67
2023/03/16 03:45:13;;;;;;;1.50;0.35;;;;;;;18.29;100.00;98526.91;7393624;19;20024;-67
2023/03/16 03:47:41;;;;;;;1.05;0.85;;;;;;;18.14;100.00;98522.75;7393277;19;20010;-68
2023/03/16 03:50:12;;;;;;;0.75;0.65;;;;;;;18.27;100.00;98515.44;7394415;19;20021;-67
2023/03/16 03:52:48;;;;;;;0.50;0.50;;;;;;;19.36;100.00;98518.66;7394836;19;20010;-66
2023/03/16 03:55:14;;;;;;;1.65;0.73;;;;;;;20.78;100.00;98510.00;7395049;19;20002;-65
2023/03/16 03:57:40;;;;;;;3.50;0.50;;;;;;;22.66;89.34;98506.31;7392454;19;20010;-65
2023/03/16 04:00:12;;;;;;;0.10;0.10;;;;;;;19.97;93.88;98507.88;7393503;19;20459;-65
2023/03/16 04:02:43;;;;;;;0.20;0.20;;;;;;;18.25;100.00;98518.06;7393968;19;20032;-66
2023/03/16 04:05:18;;;;;;;0.30;0.20;;;;;;;17.99;100.00;98517.06;7395969;19;20014;-65
2023/03/16 04:07:45;;;;;;;0.68;0.25;;;;;;;18.07;100.00;98517.84;7391164;19;20464;-65
2023/03/16 04:10:13;;;;;;;0.25;0.25;;;;;;;18.26;100.00;98511.13;7392251;19;20464;-65
2023/03/16 04:12:42;;;;;;;0.52;0.38;;;;;;;22.59;90.98;98507.91;7393811;19;20022;-66
2023/03/16 04:15:11;;;;;;;0.20;0.20;;;;;;;20.94;97.82;98502.16;7392845;19;20019;-66
2023/03/16 04:17:48;;;;;;;0.82;0.60;;;;;;;17.70;100.00;98512.06;7390756;19;20022;-64
2023/03/16 04:20:18;;;;;;;0.38;0.28;;;;;;;16.49;100.00;98511.22;7391268;19;20510;-64
2023/03/16 04:22:45;;;;;;;;;;;;;;;16.07;100.00;98515.31;7394141;19;20349;-65
2023/03/16 04:25:14;;;;;;;1.20;0.65;;;;;;;16.19;100.00;98508.88;7392300;19;19974;-66
2023/03/16 04:27:42;;;;;;;1.63;0.55;;;;;;;15.81;100.00;98499.28;7390292;19;20018;-65
2023/03/16 04:30:12;;;;;;;1.00;0.38;;;;;;;15.93;100.00;98503.38;7391437;19;20014;-64
2023/03/16 04:32:42;;;;;;;0.73;0.20;;;;;;;17.76;100.00;98499.31;7392368;19;20037;-63
2023/03/16 04:35:10;;;;;;;0.95;0.30;;;;;;;19.10;100.00;98502.13;7394725;19;20006;-64
2023/03/16 04:37:49;;;;;;;0.73;0.20;;;;;;;24.08;87.22;98487.91;7390666;19;20602;-63
2023/03/16 04:40:18;;;;;;;0.43;0.10;;;;;;;24.05;82.63;98491.97;7391007;19;20011;-65
2023/03/16 04:42:50;;;;;;;2.75;1.08;;;;;;;20.84;85.42;98496.38;7392892;19;20032;-64
2023/03/16 04:45:19;;;;;;;0.90;0.43;;;;;;;27.87;64.92;98486.09;7391819;19;20018;-63
2023/03/16 04:47:48;;;;;;;0.98;0.52;;;;;;;22.59;76.05;98490.13;7389759;19;20015;-63
2023/03/16 04:50:15;;;;;;;0.63;0.30;;;;;;;18.92;100.00;98495.56;7391818;19;20471;-64
2023/03/16 04:52:44;;;;;;;1.40;0.52;;;;;;;17.92;100.00;98484.00;7391838;19;20017;-65
2023/03/16 04:55:11;;;;;;;1.50;0.85;;;;;;;17.37;100.00;98486.38;7391064;19;20014;-65
2023/03/16 04:57:39;;;;;;;1.33;0.63;;;;;;;17.41;100.00;98486.03;7390960;19;20015;-64
2023/03/16 05:00:10;;;;;;;0.85;0.47;;;;;;;17.47;100.00;98483.81;7391565;19;20333;-63
2023/03/16 05:02:41;;;;;;;0.20;0.20;;;;;;;17.18;100.00;98490.75;7392005;19;20018;-64
2023/03/16 05:05:07;;;;;;;1.48;0.70;;;;;;;17.14;100.00;98493.94;7396249;19;20329;-63
2023/03/16 05:07:35;;;;;;;0.30;0.30;;;;;;;23.39;91.90;98484.19;7390618;19;20021;-63
2023/03/16 05:10:02;;;;;;;0.40;0.30;;;;;;;26.40;70.93;98488.66;7391703;19;20025;-63
2023/03/16 05:12:29;;;;;;;0.50;0.10;;;;;;;20.89;98.96;98495.41;7392221;19;20105;-63
2023/03/16 05:15:00;;;;;;;0.35;0.25;;;;;;;17.26;100.00;98500.03;7390933;19;20039;-63
2023/03/16 05:17:36;;;;;;;0.10;0.10;;;;;;;17.82;100.00;98502.00;7390792;19;20491;-62
2023/03/16 05:20:07;;;;;;;0.20;0.20;;;;;;;17.46;100.00;98499.16;7395918;19;20048;-63
2023/03/16 05:22:34;;;;;;;;;;;;;;;17.11;100.00;98491.47;7399128;19;20017;-65
2023/03/16 05:25:19;;;;;;;0.40;0.20;;;;;;;16.81;100.00;98491.25;7397997;19;20244;-62
2023/03/16 05:27:50;;;;;;;1.23;0.75;;;;;;;16.91;100.00;98500.72;7396937;19;20011;-63
2023/03/16 05:30:25;;;;;;;0.93;0.57;;;;;;;16.98;100.00;98495.13;7398237;19;20002;-62
2023/03/16 05:32:55;;;;;;;0.17;0.17;;;;;;;17.29;100.00;98490.44;7398999;19;20006;-63
2023/03/16 05:35:22;;;;;;;0.50;0.30;;;;;;;18.88;100.00;98483.16;7403165;19;20023;-63
2023/03/16 05:37:48;;;;;;;0.17;0.17;;;;;;;17.02;100.00;98486.38;7397686;19;20035;-62
2023/03/16 05:40:18;;;;;;;0.20;0.10;;;;;;;16.66;100.00;98487.03;7397831;19;20014;-62
2023/03/16 05:42:55;;;;;;;0.38;0.15;;;;;;;22.70;93.38;98474.66;7399082;19;20007;-62
2023/03/16 05:45:23;;;;;;;0.20;0.20;;;;;;;19.36;100.00;98465.00;7397498;19;20017;-63
2023/03/16 05:48:15;;;;;;;0.20;0.20;;;;;;;20.57;97.44;98467.19;7395715;19;20036;-63
2023/03/16 05:50:46;;;;;;;0.10;0.10;;;;;;;18.30;100.00;98477.69;7397316;19;20025;-62
2023/03/16 05:53:14;;;;;;;0.10;0.10;;;;;;;18.10;100.00;98473.72;7399391;19;20364;-62
2023/03/16 05:55:41;;;;;;;0.28;0.22;;;;;;;17.70;100.00;98478.28;7397212;19;20371;-62
2023/03/16 05:58:10;;;;;;;0.35;0.35;;;;;;;17.74;100.00;98473.03;7396060;19;20014;-62
2023/03/16 06:00:39;;;;;;;0.20;0.10;;;;;;;17.72;100.00;98476.41;7397958;19;20015;-63
2023/03/16 06:03:16;;;;;;;0.40;0.32;;;;;;;17.67;100.00;98476.59;7399587;19;20038;-61
2023/03/16 06:05:43;;;;;;;0.73;0.10;;;;;;;18.28;100.00;98477.50;7402244;19;20013;-62
2023/03/16 06:08:10;;;;;;;1.65;0.70;;;;;;;16.91;100.00;98466.97;7395195;19;20014;-61
2023/03/16 06:10:38;;;;;;;0.10;0.10;;;;;;;21.29;95.69;98461.22;7395203;19;20343;-61
2023/03/16 06:13:04;;;;;;;0.10;0.10;;;;;;;17.71;100.00;98472.09;7399813;19;20026;-62
2023/03/16 06:15:30;;;;;;;0.22;0.20;;;;;;;16.51;100.00;98470.06;7394829;19;20024;-62
2023/03/16 06:17:59;;;;;;;0.35;0.35;;;;;;;16.31;100.00;98473.59;7396092;19;20014;-61
2023/03/16 06:20:26;;;;;;;0.22;0.20;;;;;;;20.10;98.08;98461.63;7395940;19;20017;-61
2023/03/16 06:22:52;;;;;;;0.20;0.20;;;;;;;16.91;100.00;98461.34;7398183;19;20007;-66
2023/03/16 06:25:18;;;;;;;0.10;0.10;;;;;;;16.26;100.00;98460.47;7396630;19;20368;-63
2023/03/16 06:27:47;;;;;;;0.20;0.20;;;;;;;16.24;100.00;98463.03;7394609;19;20019;-63
2023/03/16 06:30:16;;;;;;;0.98;0.10;;;;;;;16.01;100.00;98464.88;7394794;19;20458;-61
2023/03/16 06:32:44;;;;;;;0.10;0.10;;;;;;;16.05;100.00;98456.13;7396531;19;20010;-61
2023/03/16 06:35:11;;;;;;;0.30;0.20;;;;;;;16.19;100.00;98461.13;7398941;19;20018;-61
2023/03/16 06:37:43;;;;;;;0.10;0.10;;;;;;;16.28;100.00;98466.28;7395771;19;20100;-61
2023/03/16 06:40:33;;;;;;;0.25;0.25;;;;;;;16.67;100.00;98470.94;7396040;19;20046;-62
2023/03/16 06:43:00;;;;;;;0.10;0.10;;;;;;;16.21;100.00;98474.63;7397282;19;20035;-61
2023/03/16 06:45:27;;;;;;;0.10;0.10;;;;;;;16.21;100.00;98477.44;7395077;19;20018;-61
2023/03/16 06:47:55;;;;;;;0.30;0.30;;;;;;;16.23;100.00;98472.78;7393205;19;20032;-61
2023/03/16 06:50:21;;;;;;;0.32;0.13;;;;;;;16.27;100.00;98467.56;7394633;19;20014;-61
2023/03/16 06:52:48;;;;;;;0.47;0.40;;;;;;;16.32;100.00;98463.13;7395777;19;20510;-62
2023/03/16 06:55:14;;;;;;;1.65;0.45;;;;;;;16.42;100.00;98466.94;7394712;19;20377;-62
2023/03/16 06:57:45;;;;;;;0.22;0.15;;;;;;;16.57;100.00;98461.47;7395224;19;20019;-62
2023/03/16 07:00:14;;;;;;;0.40;0.20;;;;;;;16.52;100.00;98459.56;7396111;19;20070;-61
2023/03/16 07:02:42;;;;;;;0.30;0.25;;;;;;;16.58;100.00;98457.38;7396932;19;20019;-61
2023/03/16 07:05:12;;;;;;;11.07;0.55;;;;;;;16.51;100.00;98458.81;7397729;19;20014;-62
2023/03/16 07:07:42;;;;;;;1.05;0.40;;;;;;;16.51;100.00;98467.25;7394886;19;20329;-61
2023/03/16 07:10:14;;;;;;;3.40;0.98;;;;;;;16.56;100.00;98463.56;7396610;19;20018;-61
2023/03/16 07:12:41;;;;;;;4.65;1.50;;;;;;;16.69;100.00;98471.13;7395428;19;20042;-61
2023/03/16 07:15:08;;;;;;;2.13;0.30;;;;;;;16.68;100.00;98461.94;7394256;19;20039;-61
2023/03/16 07:17:35;;;;;;;3.30;0.63;;;;;;;16.62;100.00;98458.53;7398250;19;20011;-61
2023/03/16 07:20:04;;;;;;;0.17;0.17;;;;;;;16.73;100.00;98456.72;7393554;19;20011;-62
2023/03/16 07:22:31;;;;;;;1.75;0.55;;;;;;;19.80;100.00;98442.03;7394173;19;20015;-61
2023/03/16 07:24:59;;;;;;;3.00;1.15;;;;;;;21.60;96.68;98453.13;7393296;19;20021;-61
2023/03/16 07:27:28;;;;;;;1.10;0.95;;;;;;;19.96;100.00;98457.59;7395036;19;20021;-61
2023/03/16 07:29:55;;;;;;;2.72;1.10;;;;;;;23.54;82.01;98460.44;7393621;19;20021;-62
2023/03/16 07:32:21;;;;;;;0.45;0.30;;;;;;;24.01;80.55;98471.75;7394005;19;20468;-61
2023/03/16 07:34:48;;;;;;;0.68;0.45;;;;;;;22.61;87.19;98473.25;7397062;19;20014;-61
2023/03/16 07:37:17;;;;;;;7.38;1.88;;;;;;;22.27;87.16;98465.63;7393252;19;20015;-60
2023/03/16 07:39:45;;;;;;;;;;;;;;;19.38;98.48;98465.19;7395323;19;20014;-60
2023/03/16 07:42:17;;;;;;;0.10;0.10;;;;;;;21.08;97.87;98470.13;7392725;19;19911;-60
2023/03/16 07:44:55;;;;;;;0.85;0.85;;;;;;;20.19;100.00;98463.84;7393336;19;20074;-60
2023/03/16 07:47:21;;;;;;;7.45;1.25;;;;;;;18.32;100.00;98452.50;7392622;19;20035;-61
2023/03/16 07:49:50;;;;;;;4.68;0.43;;;;;;;17.86;100.00;98463.69;7392250;19;20018;-61
2023/03/16 07:52:17;;;;;;;3.15;0.68;;;;;;;20.46;100.00;98447.84;7392981;19;20357;-60
2023/03/16 07:54:44;;;;;;;0.57;0.30;;;;;;;24.13;83.72;98440.59;7392772;19;20011;-61
2023/03/16 07:57:12;;;;;;;0.30;0.30;;;;;;;23.35;78.12;98444.13;7393231;19;20074;-60
2023/03/16 07:59:41;;;;;;;0.65;0.52;;;;;;;25.55;70.58;98452.53;7394539;19;20015;-60
2023/03/16 08:02:13;;;;;;;1.65;0.70;;;;;;;24.39;72.42;98444.53;7392458;19;20021;-60
2023/03/16 08:04:43;;;;;;;0.73;0.63;;;;;;;23.54;83.51;98437.72;7395278;19;20007;-60
2023/03/16 08:07:13;;;;;;;4.13;0.68;;;;;;;25.52;69.91;98453.78;7392945;19;20011;-60
2023/03/16 08:10:05;;;;;;;1.80;0.45;;;;;;;22.66;75.18;98454.47;7393165;19;20006;-60
2023/03/16 08:12:40;;;;;;;0.30;0.20;;;;;;;17.25;100.00;98461.94;7393589;19;20013;-61
2023/03/16 08:15:08;;;;;;;2.65;1.17;;;;;;;21.83;86.16;98450.75;7390988;19;20011;-60
2023/03/16 08:17:35;;;;;;;2.53;0.45;;;;;;;19.22;97.02;98455.25;7392097;19;20505;-61
2023/03/16 08:20:09;;;;;;;0.63;0.40;;;;;;;26.07;75.65;98443.03;7391608;19;20015;-60
2023/03/16 08:22:35;;;;;;;0.13;0.13;;;;;;;21.51;81.03;98450.97;7393997;19;20034;-60
2023/03/16 08:25:05;;;;;;;3.28;0.90;;;;;;;18.65;100.00;98451.38;7393044;19;20011;-61
2023/03/16 08:27:31;;;;;;;0.20;0.10;;;;;;;23.07;85.87;98448.44;7393497;19;20010;-61
2023/03/16 08:30:05;;;;;;;2.95;0.93;;;;;;;23.95;82.88;98442.84;7391423;19;20017;-61
2023/03/16 08:32:33;;;;;;;0.10;0.10;;;;;;;26.43;66.32;98450.28;7393312;19;20019;-61
2023/03/16 08:34:59;;;;;;;1.17;0.50;;;;;;;24.05;69.20;98452.16;7396277;19;20010;-62
2023/03/16 08:37:26;;;;;;;0.57;0.20;;;;;;;18.01;100.00;98458.09;7392749;19;20032;-61
2023/03/16 08:39:54;;;;;;;0.32;0.32;;;;;;;16.13;100.00;98471.00;7392621;19;20014;-60
2023/03/16 08:42:21;;;;;;;0.75;0.32;;;;;;;15.67;100.00;98462.09;7392068;19;20058;-60
2023/03/16 08:44:55;;;;;;;1.65;0.88;;;;;;;15.58;100.00;98456.19;7391355;19;20348;-60
2023/03/16 08:47:21;;;;;;;14.20;0.65;;;;;;;16.64;100.00;98438.28;7390106;19;20475;-62
2023/03/16 08:49:49;;;;;;;0.40;0.40;;;;;;;16.84;100.00;98445.19;7390640;19;20114;-61
2023/03/16 08:52:16;;;;;;;0.10;0.10;;;;;;;16.82;100.00;98442.94;7392329;19;20017;-61
2023/03/16 08:54:42;;;;;;;0.10;0.10;;;;;;;16.88;100.00;98445.56;7395741;19;20085;-61
2023/03/16 08:57:09;;;;;;;2.55;0.73;;;;;;;17.26;100.00;98441.66;7401005;19;20018;-60
2023/03/16 08:59:35;;;;;;;0.73;0.63;;;;;;;16.36;100.00;98441.03;7400113;19;20046;-61
2023/03/16 09:02:03;;;;;;;0.30;0.30;;;;;;;15.63;100.00;98439.22;7399546;19;20070;-61
2023/03/16 09:04:29;;;;;;;0.60;0.25;;;;;;;16.03;100.00;98445.44;7401026;19;20018;-61
2023/03/16 09:06:55;;;;;;;0.20;0.20;;;;;;;15.58;100.00;98442.16;7400280;19;20018;-61
2023/03/16 09:09:22;;;;;;;11.70;0.32;;;;;;;15.48;100.00;98444.66;7398125;19;20011;-61
2023/03/16 09:11:48;;;;;;;1.13;1.02;;;;;;;16.56;100.00;98443.88;7399701;19;20070;-61
2023/03/16 09:14:14;;;;;;;1.48;0.20;;;;;;;15.85;100.00;98443.59;7402491;19;20015;-61
2023/03/16 09:16:41;;;;;;;0.68;0.63;;;;;;;16.21;100.00;98450.09;7399235;19;20023;-61
2023/03/16 09:19:07;;;;;;;0.28;0.28;;;;;;;16.58;100.00;98448.94;7400071;19;20010;-60
2023/03/16 09:21:36;;;;;;;1.48;0.65;;;;;;;16.79;100.00;98441.22;7400183;19;20021;-60
2023/03/16 09:24:02;;;;;;;0.25;0.25;;;;;;;17.47;100.00;98455.66;7403485;19;20025;-61
2023/03/16 09:26:29;;;;;;;1.95;0.68;;;;;;;17.29;100.00;98451.06;7398679;19;20018;-60
2023/03/16 09:28:55;;;;;;;2.85;0.63;;;;;;;17.15;100.00;98444.06;7396204;19;20460;-60
2023/03/16 09:31:21;;;;;;;0.75;0.60;;;;;;;17.00;100.00;98447.53;7399619;19;20022;-61
2023/03/16 09:33:48;;;;;;;0.95;0.25;;;;;;;16.71;100.00;98422.78;7402879;19;20011;-61
2023/03/16 09:36:14;;;;;;;1.25;0.63;;;;;;;17.42;100.00;98425.59;7399534;19;20018;-61
2023/03/16 09:38:42;;;;;;;2.53;0.88;;;;;;;17.58;100.00;98441.28;7397763;19;20021;-62
2023/03/16 09:41:41;;;;;;;0.30;0.30;;;;;;;17.58;100.00;98429.25;7398623;19;20015;-61
2023/03/16 09:44:32;;;;;;;1.13;0.73;;;;;;;18.74;100.00;98420.56;7402424;19;20039;-61
2023/03/16 09:47:02;;;;;;;1.60;0.55;;;;;;;17.67;100.00;98406.94;7399169;19;20014;-61
2023/03/16 09:49:36;;;;;;;1.48;0.40;;;;;;;18.19;100.00;98411.91;7398993;19;20024;-61
2023/03/16 09:52:50;;;;;;;2.38;0.40;;;;;;;17.64;100.00;98413.69;7397216;19;20032;-60
2023/03/16 09:55:31;;;;;;;1.08;0.35;;;;;;;17.78;100.00;98417.84;7395993;19;20042;-61
2023/03/16 09:57:59;;;;;;;3.80;0.47;;;;;;;18.61;100.00;98400.25;7396101;19;20018;-60
2023/03/16 10:00:40;;;;;;;9.95;0.85;;;;;;;24.08;88.63;98407.53;7397860;19;20035;-61
2023/03/16 10:03:21;;;;;;;;;;;;;;;21.78;93.18;98406.41;7399468;19;20036;-61
2023/03/16 10:05:56;;;;;;;0.20;0.15;;;;;;;18.19;100.00;98417.53;7399786;19;19919;-61
2023/03/16 10:08:24;;;;;;;0.32;0.32;;;;;;;18.96;100.00;98418.25;7395383;19;20024;-61
2023/03/16 10:11:08;;;;;;;0.68;0.30;;;;;;;23.55;99.60;98410.75;7397251;19;20026;-61
2023/03/16 10:13:45;;;;;;;0.30;0.30;;;;;;;26.97;79.52;98394.38;7400857;19;20329;-61
2023/03/16 10:16:35;;;;;;;0.50;0.30;;;;;;;23.40;81.38;98394.78;7395068;19;20007;-61
2023/03/16 10:19:15;;;;;;;0.30;0.30;;;;;;;26.26;71.02;98395.06;7395625;19;20035;-61
2023/03/16 10:21:42;;;;;;;10.98;0.45;;;;;;;23.69;80.47;98392.63;7397868;19;20014;-60
2023/03/16 10:24:20;;;;;;;1.40;0.10;;;;;;;19.80;100.00;98408.13;7401599;19;20026;-60
2023/03/16 10:26:53;;;;;;;1.65;0.47;;;;;;;19.26;100.00;98406.88;7397126;19;20017;-61
2023/03/16 10:29:19;;;;;;;0.20;0.20;;;;;;;18.44;100.00;98403.66;7395114;19;20033;-61
2023/03/16 10:31:46;;;;;;;0.55;0.43;;;;;;;17.94;100.00;98402.50;7396320;19;20018;-61
2023/03/16 10:34:12;;;;;;;1.15;0.35;;;;;;;19.23;100.00;98405.19;7401183;19;20039;-61
2023/03/16 10:36:42;;;;;;;0.28;0.20;;;;;;;19.56;100.00;98401.13;7396466;19;20011;-61
2023/03/16 10:39:13;;;;;;;0.90;0.30;;;;;;;19.36;100.00;98411.38;7395636;19;20006;-60
2023/03/16 10:41:44;;;;;;;0.82;0.17;;;;;;;18.14;100.00;98404.41;7394143;19;20074;-60
2023/03/16 10:44:15;;;;;;;0.10;0.10;;;;;;;17.71;100.00;98401.72;7401048;19;20002;-60
2023/03/16 10:46:57;;;;;;;0.63;0.20;;;;;;;17.59;100.00;98406.16;7397158;19;20019;-61
2023/03/16 10:49:28;;;;;;;1.65;0.52;;;;;;;19.55;100.00;98399.63;7396725;19;20015;-60
2023/03/16 10:51:59;;;;;;;0.10;0.10;;;;;;;19.41;100.00;98396.28;7396051;19;20014;-60
2023/03/16 10:54:31;;;;;;;0.47;0.10;;;;;;;16.92;100.00;98401.75;7394745;19;20031;-62
2023/03/16 10:56:57;;;;;;;1.85;0.38;;;;;;;16.01;100.00;98414.34;7395591;19;20089;-61
2023/03/16 10:59:33;;;;;;;0.35;0.35;;;;;;;15.88;100.00;98420.78;7396474;19;20010;-61
2023/03/16 11:02:16;;;;;;;0.43;0.22;;;;;;;15.93;100.00;98411.47;7395651;19;20041;-61
2023/03/16 11:04:42;;;;;;;2.83;0.40;;;;;;;16.93;100.00;98405.31;7397320;19;20119;-61
2023/03/16 11:07:18;;;;;;;0.40;0.15;;;;;;;18.06;100.00;98400.06;7393250;19;20538;-60
2023/03/16 11:09:46;;;;;;;1.52;1.38;;;;;;;18.29;100.00;98397.25;7394144;19;20037;-61
2023/03/16 11:12:24;;;;;;;4.05;1.05;;;;;;;17.82;100.00;98406.22;7396320;19;20015;-60
2023/03/16 11:14:50;;;;;;;3.92;1.75;;;;;;;19.26;100.00;98390.69;7396725;19;20015;-60
2023/03/16 11:17:24;;;;;;;8.15;1.77;;;;;;;19.14;100.00;98400.91;7393899;19;20078;-61
2023/03/16 11:19:59;;;;;;;4.60;1.65;;;;;;;19.20;100.00;98404.25;7395604;19;20014;-60
2023/03/16 11:22:25;;;;;;;6.13;1.80;;;;;;;21.88;100.00;98402.31;7396584;19;20007;-61
2023/03/16 11:25:08;;;;;;;13.10;1.48;;;;;;;21.33;99.60;98407.00;7394174;19;20014;-60
2023/03/16 11:27:55;;;;;;;1.95;1.08;;;;;;;19.64;100.00;98407.50;7394396;19;20035;-61
2023/03/16 11:30:38;;;;;;;4.10;0.60;;;;;;;19.62;100.00;98416.50;7393832;19;20104;-61
2023/03/16 11:33:09;;;;;;;2.83;0.68;;;;;;;19.52;100.00;98409.22;7397170;19;20362;-61
2023/03/16 11:35:41;;;;;;;10.30;0.65;;;;;;;19.85;100.00;98401.53;7399817;19;20011;-60
2023/03/16 11:38:19;;;;;;;0.60;0.57;;;;;;;19.80;100.00;98396.84;7394584;19;20472;-61
2023/03/16 11:40:57;;;;;;;6.50;0.80;;;;;;;19.88;100.00;98398.28;7395297;19;20019;-61